createdAt,value
2022-10-17T00:00:58.806Z,16.21
2022-10-17T00:03:26.301Z,16.23
2022-10-17T00:05:53.656Z,16.18
2022-10-17T00:08:21.714Z,16.19
2022-10-17T00:10:57.710Z,16.16
2022-10-17T00:13:25.238Z,16.12
2022-10-17T00:15:52.833Z,16.07
2022-10-17T00:18:20.641Z,16.06
2022-10-17T00:20:48.052Z,16.04
2022-10-17T00:23:17.825Z,15.95
2022-10-17T00:25:45.243Z,15.93
2022-10-17T00:28:14.075Z,15.97
2022-10-17T00:30:41.498Z,15.97
2022-10-17T00:33:08.896Z,15.94
2022-10-17T00:35:36.469Z,15.82
2022-10-17T00:38:04.744Z,15.79
2022-10-17T00:40:32.234Z,15.76
2022-10-17T00:42:59.494Z,15.69
2022-10-17T00:45:29.955Z,15.78
2022-10-17T00:48:08.465Z,15.84
2022-10-17T00:50:38.748Z,15.80
2022-10-17T00:53:08.100Z,15.76
2022-10-17T00:55:42.268Z,15.82
2022-10-17T00:58:09.812Z,15.86
2022-10-17T01:00:37.396Z,15.91
2022-10-17T01:03:05.106Z,15.94
2022-10-17T01:05:32.539Z,15.95
2022-10-17T01:08:00.671Z,15.91
2022-10-17T01:10:34.969Z,15.94
2022-10-17T01:13:12.534Z,15.92
2022-10-17T01:16:11.646Z,15.85
2022-10-17T01:19:14.185Z,15.81
2022-10-17T01:22:43.310Z,15.83
2022-10-17T01:25:58.658Z,15.68
2022-10-17T01:28:26.181Z,15.69
2022-10-17T01:31:23.597Z,15.64
2022-10-17T01:34:02.801Z,15.68
2022-10-17T01:37:01.197Z,15.62
2022-10-17T01:39:30.065Z,15.59
2022-10-17T01:42:17.110Z,15.56
2022-10-17T01:44:58.406Z,15.62
2022-10-17T01:47:29.520Z,15.65
2022-10-17T01:50:03.218Z,15.59
2022-10-17T01:52:38.917Z,15.62
2022-10-17T01:55:09.096Z,15.70
2022-10-17T01:57:45.159Z,15.71
2022-10-17T02:00:19.024Z,15.71
2022-10-17T02:03:04.346Z,15.70
2022-10-17T02:05:37.537Z,15.72
2022-10-17T02:08:05.707Z,15.70
2022-10-17T02:11:06.181Z,15.69
2022-10-17T02:14:01.641Z,15.63
2022-10-17T02:16:38.802Z,15.62
2022-10-17T02:19:36.770Z,15.57
2022-10-17T02:22:30.155Z,15.45
2022-10-17T02:25:21.796Z,15.52
2022-10-17T02:28:15.751Z,15.61
2022-10-17T02:30:50.501Z,15.62
2022-10-17T02:33:43.784Z,15.57
2022-10-17T02:36:20.558Z,15.62
2022-10-17T02:38:50.132Z,15.62
2022-10-17T02:41:21.431Z,15.66
2022-10-17T02:43:50.614Z,15.55
2022-10-17T02:46:22.787Z,15.49
2022-10-17T02:49:03.627Z,15.43
2022-10-17T02:51:45.233Z,15.45
2022-10-17T02:54:20.410Z,15.43
2022-10-17T02:56:59.170Z,15.47
2022-10-17T02:59:30.671Z,15.54
2022-10-17T03:01:58.206Z,15.57
2022-10-17T03:04:25.640Z,15.61
2022-10-17T03:06:53.057Z,15.66
2022-10-17T03:09:20.466Z,15.57
2022-10-17T03:11:47.824Z,15.58
2022-10-17T03:14:17.836Z,15.55
2022-10-17T03:16:45.514Z,15.50
2022-10-17T03:19:13.835Z,15.57
2022-10-17T03:21:41.399Z,15.62
2022-10-17T03:24:08.799Z,15.55
2022-10-17T03:26:38.475Z,15.52
2022-10-17T03:29:07.456Z,15.49
2022-10-17T03:31:36.226Z,15.48
2022-10-17T03:34:04.543Z,15.47
2022-10-17T03:36:34.579Z,15.41
2022-10-17T03:39:02.381Z,15.43
2022-10-17T03:41:30.085Z,15.42
2022-10-17T03:43:57.439Z,15.41
2022-10-17T03:46:25.354Z,15.42
2022-10-17T03:48:57.293Z,15.45
2022-10-17T03:51:25.229Z,15.41
2022-10-17T03:53:58.936Z,15.45
2022-10-17T03:56:26.938Z,15.41
2022-10-17T03:58:59.749Z,15.39
2022-10-17T04:01:28.511Z,15.43
2022-10-17T04:03:57.619Z,15.35
2022-10-17T04:06:27.940Z,15.19
2022-10-17T04:08:59.087Z,15.22
2022-10-17T04:11:55.418Z,15.21
2022-10-17T04:14:23.470Z,15.24
2022-10-17T04:16:51.744Z,15.10
2022-10-17T04:19:21.336Z,15.03
2022-10-17T04:21:50.322Z,15.09
2022-10-17T04:24:18.352Z,15.10
2022-10-17T04:27:15.070Z,15.09
2022-10-17T04:29:45.691Z,15.12
2022-10-17T04:32:20.410Z,15.15
2022-10-17T04:35:04.879Z,15.06
2022-10-17T04:37:32.805Z,15.09
2022-10-17T04:40:04.116Z,15.07
2022-10-17T04:42:33.005Z,15.09
2022-10-17T04:45:00.455Z,15.10
2022-10-17T04:47:28.302Z,15.11
2022-10-17T04:49:56.545Z,15.16
2022-10-17T04:52:25.181Z,15.13
2022-10-17T04:54:53.548Z,15.14
2022-10-17T04:57:21.705Z,15.22
2022-10-17T04:59:59.372Z,15.27
2022-10-17T05:05:32.424Z,15.24
2022-10-17T05:08:00.752Z,15.17
2022-10-17T05:10:35.933Z,15.09
2022-10-17T05:13:04.953Z,15.16
2022-10-17T05:15:33.866Z,15.13
2022-10-17T05:18:02.802Z,15.06
2022-10-17T05:20:31.028Z,15.03
2022-10-17T05:23:02.156Z,15.07
2022-10-17T05:25:34.876Z,15.04
2022-10-17T05:28:02.330Z,15.13
2022-10-17T05:30:33.709Z,15.14
2022-10-17T05:33:05.061Z,15.19
2022-10-17T05:35:32.910Z,15.27
2022-10-17T05:38:00.596Z,15.27
2022-10-17T05:40:28.606Z,15.24
2022-10-17T05:42:55.976Z,15.22
2022-10-17T05:45:24.533Z,14.90
2022-10-17T05:47:52.101Z,14.77
2022-10-17T05:50:21.983Z,14.70
2022-10-17T05:53:18.460Z,14.63
2022-10-17T05:55:56.399Z,14.57
2022-10-17T05:58:45.577Z,14.63
2022-10-17T06:01:18.803Z,14.66
2022-10-17T06:03:46.229Z,14.73
2022-10-17T06:06:14.897Z,14.80
2022-10-17T06:08:45.154Z,14.89
2022-10-17T06:11:16.137Z,15.00
2022-10-17T06:13:43.551Z,15.07
2022-10-17T06:16:16.263Z,15.05
2022-10-17T06:18:45.006Z,15.00
2022-10-17T06:21:17.094Z,15.03
2022-10-17T06:23:47.340Z,15.01
2022-10-17T06:26:19.849Z,15.13
2022-10-17T06:28:47.441Z,15.15
2022-10-17T06:31:16.950Z,15.34
2022-10-17T06:33:44.441Z,15.42
2022-10-17T06:36:15.341Z,15.53
2022-10-17T06:38:43.761Z,15.67
2022-10-17T06:41:20.222Z,15.74
2022-10-17T06:43:47.867Z,15.83
2022-10-17T06:46:40.466Z,15.94
2022-10-17T06:49:10.453Z,16.08
2022-10-17T06:51:52.365Z,16.11
2022-10-17T06:54:23.972Z,16.17
2022-10-17T06:57:10.522Z,16.28
2022-10-17T06:59:50.503Z,16.33
2022-10-17T07:02:28.361Z,16.18
2022-10-17T07:04:57.859Z,16.25
2022-10-17T07:07:25.266Z,16.40
2022-10-17T07:09:53.620Z,16.39
2022-10-17T07:12:21.290Z,16.46
2022-10-17T07:14:50.702Z,16.55
2022-10-17T07:17:20.712Z,16.64
2022-10-17T07:19:48.647Z,16.83
2022-10-17T07:22:16.022Z,16.83
2022-10-17T07:24:47.337Z,16.97
2022-10-17T07:27:20.172Z,16.91
2022-10-17T07:29:48.190Z,17.07
2022-10-17T07:32:33.712Z,17.28
2022-10-17T07:35:01.460Z,17.39
2022-10-17T07:37:30.154Z,17.51
2022-10-17T07:40:00.888Z,17.86
2022-10-17T07:42:28.664Z,18.37
2022-10-17T07:44:56.094Z,19.07
2022-10-17T07:47:24.310Z,19.75
2022-10-17T07:49:53.000Z,20.29
2022-10-17T07:52:20.594Z,20.80
2022-10-17T07:54:47.926Z,21.18
2022-10-17T07:57:15.277Z,21.55
2022-10-17T07:59:42.687Z,21.85
2022-10-17T08:02:22.590Z,21.91
2022-10-17T08:04:51.599Z,22.14
2022-10-17T08:07:23.206Z,22.13
2022-10-17T08:09:52.815Z,22.48
2022-10-17T08:12:20.479Z,23.30
2022-10-17T08:14:48.221Z,23.88
2022-10-17T08:17:15.581Z,24.09
2022-10-17T08:19:42.938Z,23.96
2022-10-17T08:22:10.275Z,24.13
2022-10-17T08:24:37.994Z,24.36
2022-10-17T08:27:11.419Z,23.79
2022-10-17T08:29:40.050Z,24.60
2022-10-17T08:32:09.930Z,24.44
2022-10-17T08:34:37.648Z,24.71
2022-10-17T08:37:05.104Z,24.24
2022-10-17T08:39:32.494Z,25.25
2022-10-17T08:42:05.779Z,25.73
2022-10-17T08:44:43.160Z,25.37
2022-10-17T08:47:15.673Z,26.05
2022-10-17T08:49:48.525Z,25.92
2022-10-17T08:52:56.500Z,25.91
2022-10-17T08:55:42.831Z,26.11
2022-10-17T08:58:34.112Z,26.25
2022-10-17T09:01:13.692Z,25.90
2022-10-17T09:03:47.151Z,26.23
2022-10-17T09:06:14.443Z,26.55
2022-10-17T09:08:46.711Z,26.28
2022-10-17T09:11:56.209Z,26.10
2022-10-17T09:14:52.121Z,26.35
2022-10-17T09:17:43.949Z,26.41
2022-10-17T09:20:20.838Z,26.86
2022-10-17T09:25:39.680Z,26.46
2022-10-17T09:28:13.942Z,26.00
2022-10-17T09:30:47.512Z,25.43
2022-10-17T09:33:34.746Z,25.45
2022-10-17T09:36:17.386Z,25.29
2022-10-17T09:38:48.808Z,24.97
2022-10-17T09:41:43.545Z,24.24
2022-10-17T09:44:16.836Z,24.26
2022-10-17T09:47:00.444Z,23.94
2022-10-17T09:49:37.109Z,24.03
2022-10-17T09:52:09.670Z,23.97
2022-10-17T09:54:57.063Z,23.81
2022-10-17T09:57:25.504Z,23.73
2022-10-17T10:00:02.460Z,23.48
2022-10-17T10:02:32.402Z,23.44
2022-10-17T10:05:18.921Z,23.23
2022-10-17T10:08:03.535Z,23.44
2022-10-17T10:10:32.176Z,23.29
2022-10-17T10:13:04.824Z,22.99
2022-10-17T10:15:44.000Z,23.02
2022-10-17T10:21:10.247Z,23.11
2022-10-17T10:23:42.827Z,23.17
2022-10-17T10:26:25.593Z,22.92
2022-10-17T10:28:59.900Z,22.78
2022-10-17T10:31:31.379Z,22.74
2022-10-17T10:34:02.320Z,22.71
2022-10-17T10:37:24.310Z,22.75
2022-10-17T10:40:01.051Z,23.01
2022-10-17T10:42:30.753Z,22.78
2022-10-17T10:45:03.951Z,22.70
2022-10-17T10:47:33.036Z,22.82
2022-10-17T10:50:24.232Z,22.57
2022-10-17T10:53:22.504Z,22.22
2022-10-17T10:55:56.854Z,22.44
2022-10-17T10:58:50.538Z,22.76
2022-10-17T11:01:39.053Z,22.97
2022-10-17T11:04:19.904Z,22.92
2022-10-17T11:06:50.399Z,22.86
2022-10-17T11:09:33.863Z,22.93
2022-10-17T11:12:46.501Z,22.83
2022-10-17T11:15:26.032Z,22.70
2022-10-17T11:18:06.860Z,22.74
2022-10-17T11:21:00.171Z,22.77
2022-10-17T11:23:44.875Z,22.71
2022-10-17T11:26:26.911Z,22.92
2022-10-17T11:28:55.480Z,22.95
2022-10-17T11:31:31.724Z,22.94
2022-10-17T11:34:10.847Z,23.06
2022-10-17T11:36:41.923Z,23.18
2022-10-17T11:39:20.553Z,23.07
2022-10-17T11:42:22.333Z,22.98
2022-10-17T11:44:52.450Z,23.02
2022-10-17T11:47:38.279Z,23.21
2022-10-17T11:53:19.717Z,23.47
2022-10-17T11:55:47.878Z,23.67
2022-10-17T11:58:30.657Z,23.58
2022-10-17T12:01:32.905Z,23.98
2022-10-17T12:04:18.371Z,23.87
2022-10-17T12:07:17.508Z,23.75
2022-10-17T12:09:50.596Z,23.68
2022-10-17T12:12:33.381Z,23.59
2022-10-17T12:15:12.827Z,23.84
2022-10-17T12:17:45.892Z,23.63
2022-10-17T12:20:25.449Z,23.71
2022-10-17T12:23:20.164Z,23.74
2022-10-17T12:26:25.333Z,23.74
2022-10-17T12:28:53.148Z,23.59
2022-10-17T12:31:21.774Z,23.55
2022-10-17T12:33:50.751Z,23.72
2022-10-17T12:36:22.565Z,23.80
2022-10-17T12:39:14.574Z,23.74
2022-10-17T12:41:42.526Z,23.68
2022-10-17T12:44:12.833Z,23.90
2022-10-17T12:46:56.718Z,23.80
2022-10-17T12:49:43.922Z,23.85
2022-10-17T12:52:11.325Z,23.88
2022-10-17T12:54:48.043Z,23.80
2022-10-17T12:57:41.146Z,23.98
2022-10-17T13:00:19.991Z,23.92
2022-10-17T13:02:49.174Z,24.07
2022-10-17T13:05:38.130Z,23.98
2022-10-17T13:08:13.317Z,23.67
2022-10-17T13:10:43.207Z,23.83
2022-10-17T13:13:15.911Z,23.70
2022-10-17T13:15:47.077Z,23.51
2022-10-17T13:18:26.940Z,23.78
2022-10-17T13:21:03.899Z,23.80
2022-10-17T13:23:34.824Z,23.74
2022-10-17T13:26:06.321Z,23.75
2022-10-17T13:28:38.426Z,23.77
2022-10-17T13:31:08.138Z,23.81
2022-10-17T13:33:40.319Z,23.97
2022-10-17T13:36:15.724Z,23.78
2022-10-17T13:38:43.380Z,23.86
2022-10-17T13:41:34.672Z,23.78
2022-10-17T13:44:07.362Z,23.70
2022-10-17T13:46:38.432Z,23.61
2022-10-17T13:49:32.648Z,23.73
2022-10-17T13:52:02.465Z,23.75
2022-10-17T13:54:43.762Z,23.73
2022-10-17T13:57:18.891Z,23.69
2022-10-17T13:59:50.364Z,23.63
2022-10-17T14:02:22.868Z,23.37
2022-10-17T14:05:19.195Z,23.39
2022-10-17T14:08:11.202Z,23.34
2022-10-17T14:10:44.015Z,23.25
2022-10-17T14:13:28.204Z,23.30
2022-10-17T14:15:59.528Z,23.29
2022-10-17T14:18:36.803Z,23.15
2022-10-17T14:24:28.669Z,23.12
2022-10-17T14:27:01.377Z,23.18
2022-10-17T14:29:31.894Z,23.09
2022-10-17T14:32:06.326Z,23.15
2022-10-17T14:34:37.017Z,23.11
2022-10-17T14:37:32.225Z,23.12
2022-10-17T14:40:01.328Z,23.02
2022-10-17T14:42:29.198Z,22.94
2022-10-17T14:45:06.165Z,22.96
2022-10-17T14:47:49.584Z,22.90
2022-10-17T14:50:26.379Z,22.94
2022-10-17T14:53:07.617Z,22.86
2022-10-17T14:55:36.609Z,22.81
2022-10-17T14:58:25.514Z,22.86
2022-10-17T15:00:52.929Z,22.85
2022-10-17T15:03:20.382Z,22.80
2022-10-17T15:05:49.209Z,22.78
2022-10-17T15:08:21.690Z,22.73
2022-10-17T15:10:50.533Z,22.77
2022-10-17T15:13:39.984Z,22.70
2022-10-17T15:16:19.470Z,22.65
2022-10-17T15:18:46.895Z,22.61
2022-10-17T15:21:26.261Z,22.45
2022-10-17T15:24:01.794Z,22.44
2022-10-17T15:26:34.139Z,22.37
2022-10-17T15:29:01.817Z,22.31
2022-10-17T15:31:31.537Z,22.34
2022-10-17T15:33:58.969Z,22.36
2022-10-17T15:36:48.297Z,22.37
2022-10-17T15:39:15.827Z,22.36
2022-10-17T15:41:43.203Z,22.29
2022-10-17T15:44:10.594Z,22.23
2022-10-17T15:46:41.287Z,22.26
2022-10-17T15:49:14.760Z,22.15
2022-10-17T15:51:42.110Z,22.17
2022-10-17T15:54:09.648Z,22.11
2022-10-17T15:56:40.623Z,22.13
2022-10-17T15:59:13.009Z,22.06
2022-10-17T16:01:41.149Z,21.94
2022-10-17T16:04:15.105Z,21.87
2022-10-17T16:06:43.102Z,21.87
2022-10-17T16:09:10.867Z,21.81
2022-10-17T16:11:41.078Z,21.68
2022-10-17T16:14:12.918Z,21.57
2022-10-17T16:16:40.666Z,21.52
2022-10-17T16:19:10.151Z,21.45
2022-10-17T16:21:40.113Z,21.42
2022-10-17T16:24:11.213Z,21.35
2022-10-17T16:26:39.472Z,21.36
2022-10-17T16:29:06.909Z,21.35
2022-10-17T16:31:36.526Z,21.31
2022-10-17T16:34:06.452Z,21.26
2022-10-17T16:36:33.828Z,21.27
2022-10-17T16:39:01.190Z,21.28
2022-10-17T16:41:30.778Z,21.17
2022-10-17T16:44:00.484Z,21.12
2022-10-17T16:46:29.479Z,21.11
2022-10-17T16:48:57.052Z,21.09
2022-10-17T16:51:25.418Z,21.05
2022-10-17T16:53:54.517Z,21.02
2022-10-17T16:56:26.502Z,20.92
2022-10-17T16:58:53.693Z,20.89
2022-10-17T17:01:23.315Z,20.83
2022-10-17T17:03:52.285Z,20.76
2022-10-17T17:06:22.412Z,20.72
2022-10-17T17:08:50.753Z,20.69
2022-10-17T17:11:21.016Z,20.60
2022-10-17T17:13:48.673Z,20.59
2022-10-17T17:16:22.645Z,20.57
2022-10-17T17:18:54.569Z,20.49
2022-10-17T17:21:21.866Z,20.44
2022-10-17T17:23:49.475Z,20.41
2022-10-17T17:26:19.765Z,20.36
2022-10-17T17:28:49.367Z,20.26
2022-10-17T17:31:19.580Z,20.24
2022-10-17T17:33:47.110Z,20.23
2022-10-17T17:36:19.180Z,20.24
2022-10-17T17:38:47.478Z,20.13
2022-10-17T17:41:17.650Z,20.08
2022-10-17T17:43:47.430Z,19.99
2022-10-17T17:46:19.292Z,19.85
2022-10-17T17:48:47.955Z,19.65
2022-10-17T17:51:18.289Z,19.55
2022-10-17T17:53:45.896Z,19.44
2022-10-17T17:56:16.364Z,19.37
2022-10-17T17:58:45.847Z,19.32
2022-10-17T18:01:21.522Z,19.32
2022-10-17T18:03:50.727Z,19.32
2022-10-17T18:06:19.023Z,19.34
2022-10-17T18:08:52.032Z,19.40
2022-10-17T18:11:21.968Z,19.37
2022-10-17T18:14:23.687Z,19.28
2022-10-17T18:16:51.194Z,19.15
2022-10-17T18:19:22.838Z,19.14
2022-10-17T18:21:50.286Z,19.06
2022-10-17T18:24:17.606Z,18.94
2022-10-17T18:26:44.960Z,18.85
2022-10-17T18:29:12.852Z,18.69
2022-10-17T18:31:40.577Z,18.54
2022-10-17T18:34:07.999Z,18.48
2022-10-17T18:36:37.193Z,18.38
2022-10-17T18:39:05.406Z,18.36
2022-10-17T18:41:33.662Z,18.36
2022-10-17T18:44:05.239Z,18.42
2022-10-17T18:46:40.590Z,18.44
2022-10-17T18:49:18.951Z,18.49
2022-10-17T18:51:46.860Z,18.49
2022-10-17T18:54:17.188Z,18.53
2022-10-17T18:56:45.072Z,18.53
2022-10-17T18:59:12.405Z,18.55
2022-10-17T19:01:39.801Z,18.62
2022-10-17T19:04:07.155Z,18.58
2022-10-17T19:06:34.580Z,18.71
2022-10-17T19:09:04.473Z,18.54
2022-10-17T19:11:33.550Z,18.52
2022-10-17T19:14:08.179Z,18.51
2022-10-17T19:16:37.215Z,18.44
2022-10-17T19:19:08.258Z,18.50
2022-10-17T19:21:35.647Z,18.45
2022-10-17T19:24:05.972Z,18.42
2022-10-17T19:26:36.071Z,18.31
2022-10-17T19:29:04.826Z,18.30
2022-10-17T19:31:34.816Z,18.27
2022-10-17T19:34:02.666Z,18.26
2022-10-17T19:36:33.377Z,18.26
2022-10-17T19:39:07.594Z,18.23
2022-10-17T19:41:36.372Z,18.15
2022-10-17T19:44:03.711Z,18.16
2022-10-17T19:46:35.032Z,18.13
2022-10-17T19:49:03.441Z,18.08
2022-10-17T19:51:31.139Z,17.95
2022-10-17T19:54:00.536Z,17.89
2022-10-17T19:56:33.725Z,17.89
2022-10-17T19:59:01.672Z,17.95
2022-10-17T20:01:33.400Z,17.92
2022-10-17T20:04:01.342Z,17.83
2022-10-17T20:06:28.727Z,17.84
2022-10-17T20:08:56.416Z,17.85
2022-10-17T20:11:26.255Z,17.82
2022-10-17T20:13:54.991Z,17.80
2022-10-17T20:16:25.622Z,17.82
2022-10-17T20:18:56.454Z,17.74
2022-10-17T20:21:35.052Z,17.64
2022-10-17T20:24:04.543Z,17.53
2022-10-17T20:26:38.328Z,17.49
2022-10-17T20:29:18.022Z,17.61
2022-10-17T20:31:46.680Z,17.49
2022-10-17T20:34:15.236Z,17.46
2022-10-17T20:36:42.623Z,17.38
2022-10-17T20:39:12.769Z,17.36
2022-10-17T20:41:40.818Z,17.28
2022-10-17T20:44:08.482Z,17.35
2022-10-17T20:46:39.739Z,17.31
2022-10-17T20:49:17.438Z,17.20
2022-10-17T20:51:45.416Z,17.14
2022-10-17T20:54:13.214Z,17.03
2022-10-17T20:56:40.597Z,16.97
2022-10-17T20:59:12.698Z,16.96
2022-10-17T21:01:40.474Z,16.96
2022-10-17T21:04:33.759Z,17.01
2022-10-17T21:06:55.317Z,16.91
2022-10-17T21:09:22.910Z,16.87
2022-10-17T21:11:54.190Z,16.85
2022-10-17T21:14:23.091Z,16.90
2022-10-17T21:16:52.269Z,16.87
2022-10-17T21:19:19.790Z,16.91
2022-10-17T21:21:47.825Z,16.96
2022-10-17T21:24:20.815Z,16.99
2022-10-17T21:26:53.508Z,17.06
2022-10-17T21:29:22.050Z,17.09
2022-10-17T21:31:49.741Z,17.04
2022-10-17T21:34:23.952Z,17.03
2022-10-17T21:36:51.850Z,17.12
2022-10-17T21:39:19.781Z,17.12
2022-10-17T21:41:48.319Z,17.11
2022-10-17T21:44:18.179Z,17.11
2022-10-17T21:46:46.793Z,17.08
2022-10-17T21:49:17.284Z,16.99
2022-10-17T21:51:48.594Z,16.92
2022-10-17T21:54:17.982Z,16.81
2022-10-17T21:56:45.292Z,16.77
2022-10-17T21:59:12.856Z,16.75
2022-10-17T22:01:42.671Z,16.70
2022-10-17T22:04:14.861Z,16.74
2022-10-17T22:06:44.781Z,16.75
2022-10-17T22:09:19.969Z,16.67
2022-10-17T22:11:51.411Z,16.63
2022-10-17T22:14:21.549Z,16.54
2022-10-17T22:16:49.696Z,16.41
2022-10-17T22:19:21.193Z,16.30
2022-10-17T22:21:49.539Z,16.37
2022-10-17T22:24:18.815Z,16.32
2022-10-17T22:26:47.263Z,16.31
2022-10-17T22:29:15.243Z,16.32
2022-10-17T22:31:43.030Z,16.26
2022-10-17T22:34:13.437Z,16.33
2022-10-17T22:36:41.773Z,16.25
2022-10-17T22:39:09.948Z,16.15
2022-10-17T22:41:37.339Z,16.03
2022-10-17T22:44:04.832Z,16.06
2022-10-17T22:46:32.263Z,16.05
2022-10-17T22:48:59.606Z,16.04
2022-10-17T22:51:27.113Z,16.05
2022-10-17T22:53:54.578Z,16.09
2022-10-17T22:56:23.016Z,16.15
2022-10-17T22:58:50.881Z,16.20
2022-10-17T23:01:21.078Z,16.20
2022-10-17T23:03:50.921Z,16.21
2022-10-17T23:06:19.409Z,16.18
2022-10-17T23:08:47.336Z,16.20
2022-10-17T23:11:14.758Z,16.26
2022-10-17T23:13:42.163Z,16.27
2022-10-17T23:16:11.090Z,16.24
2022-10-17T23:18:39.472Z,16.09
2022-10-17T23:21:07.894Z,16.05
2022-10-17T23:23:36.300Z,15.97
2022-10-17T23:26:08.746Z,15.92
2022-10-17T23:28:36.505Z,15.96
2022-10-17T23:31:18.311Z,16.05
2022-10-17T23:33:48.169Z,16.09
2022-10-17T23:36:18.333Z,16.04
2022-10-17T23:38:46.760Z,16.08
2022-10-17T23:41:29.152Z,16.08
2022-10-17T23:43:56.588Z,16.10
2022-10-17T23:46:24.161Z,16.06
2022-10-17T23:48:51.719Z,16.07
2022-10-17T23:51:19.821Z,15.95
2022-10-17T23:53:50.287Z,15.85
2022-10-17T23:56:17.826Z,15.79
2022-10-17T23:58:45.187Z,15.79
